Time;durP1;ratioP1;P1;durP2;ratioP2;P2;SDS_P1;SDS_P2;PMS_P1;PMS_P2;Temp;Humidity;BMP_temperature;BMP_pressure;BME280_temperature;BME280_humidity;BME280_pressure;Samples;Min_cycle;Max_cycle;Signal;HPM_P1;HPM_P2
2022/10/31 00:01:17;;;;;;;21.67;7.75;;;;;;;13.61;100.00;101809.84;4989263;28;20495;-82
2022/10/31 00:03:43;;;;;;;23.38;8.70;;;;;;;13.62;100.00;101806.28;4992104;28;20486;-82
2022/10/31 00:06:09;;;;;;;19.67;8.48;;;;;;;13.58;100.00;101796.31;5004897;28;20042;-82
2022/10/31 00:08:34;;;;;;;16.70;8.13;;;;;;;13.55;100.00;101794.84;4992026;28;20510;-83
2022/10/31 00:11:00;;;;;;;18.60;8.77;;;;;;;13.53;100.00;101803.78;4988630;28;20064;-82
2022/10/31 00:13:26;;;;;;;19.63;9.57;;;;;;;13.53;100.00;101812.41;5000654;28;20041;-82
2022/10/31 00:15:51;;;;;;;21.60;9.90;;;;;;;13.54;100.00;101802.78;4980422;28;20046;-83
2022/10/31 00:18:17;;;;;;;19.77;8.65;;;;;;;13.52;100.00;101817.75;4986876;28;20045;-83
2022/10/31 00:20:42;;;;;;;15.88;8.05;;;;;;;13.51;100.00;101803.94;5006474;28;20084;-83
2022/10/31 00:23:09;;;;;;;20.92;8.63;;;;;;;13.51;100.00;101813.53;4997384;28;20034;-82
2022/10/31 00:25:37;;;;;;;22.05;8.30;;;;;;;13.51;100.00;101803.13;4993847;28;20041;-82
2022/10/31 00:28:05;;;;;;;16.17;7.75;;;;;;;13.50;100.00;101791.03;4990121;28;20037;-83
2022/10/31 00:30:30;;;;;;;19.85;7.95;;;;;;;13.45;100.00;101796.72;5005640;28;20037;-82
2022/10/31 00:32:56;;;;;;;17.30;8.02;;;;;;;13.42;100.00;101813.44;4991268;28;20041;-82
2022/10/31 00:35:21;;;;;;;18.13;9.35;;;;;;;13.42;100.00;101820.47;4990036;28;20045;-82
2022/10/31 00:37:47;;;;;;;16.42;9.23;;;;;;;13.42;100.00;101810.84;5004919;28;20049;-83
2022/10/31 00:40:12;;;;;;;23.25;8.23;;;;;;;13.42;100.00;101802.22;5005481;28;20041;-83
2022/10/31 00:42:41;;;;;;;21.58;8.75;;;;;;;13.44;100.00;101797.69;4994942;28;20030;-81
2022/10/31 00:45:08;;;;;;;14.18;7.07;;;;;;;13.46;100.00;101805.34;4987387;28;20018;-82
2022/10/31 00:47:33;;;;;;;18.73;8.40;;;;;;;13.46;100.00;101800.94;4962217;28;20034;-82
2022/10/31 00:49:59;;;;;;;16.15;8.40;;;;;;;13.47;100.00;101802.59;4989031;28;20044;-82
2022/10/31 00:52:24;;;;;;;24.33;9.20;;;;;;;13.48;100.00;101798.19;4989414;28;20045;-83
2022/10/31 00:54:50;;;;;;;20.63;7.78;;;;;;;13.47;100.00;101801.75;4991871;28;20519;-82
2022/10/31 00:57:15;;;;;;;19.58;8.60;;;;;;;13.47;100.00;101809.56;4998948;28;20038;-81
2022/10/31 00:59:41;;;;;;;20.75;8.85;;;;;;;13.48;100.00;101812.03;4986981;28;20034;-82
2022/10/31 01:02:07;;;;;;;33.72;9.35;;;;;;;13.47;100.00;101810.41;4986625;28;20034;-82
2022/10/31 01:04:33;;;;;;;18.80;8.45;;;;;;;13.46;100.00;101807.94;4991066;28;20030;-82
2022/10/31 01:06:58;;;;;;;15.82;7.70;;;;;;;13.44;100.00;101810.69;5010732;28;20037;-83
2022/10/31 01:09:23;;;;;;;22.27;8.60;;;;;;;13.44;100.00;101810.69;4990862;28;20026;-82
2022/10/31 01:11:49;;;;;;;24.05;8.77;;;;;;;13.38;100.00;101796.50;4966011;28;20411;-82
2022/10/31 01:14:14;;;;;;;23.42;9.80;;;;;;;13.33;100.00;101810.94;4990243;28;20515;-82
2022/10/31 01:16:40;;;;;;;18.27;9.02;;;;;;;13.25;100.00;101809.84;4991707;28;20116;-82
2022/10/31 01:19:05;;;;;;;20.63;8.35;;;;;;;13.20;100.00;101803.44;4971898;28;20034;-83
2022/10/31 01:21:31;;;;;;;19.77;8.50;;;;;;;13.17;100.00;101793.34;5003114;28;20041;-82
2022/10/31 01:23:58;;;;;;;21.42;7.57;;;;;;;13.11;100.00;101789.56;5005665;28;20033;-82
2022/10/31 01:26:27;;;;;;;23.73;7.93;;;;;;;13.10;100.00;101800.13;4988704;28;20129;-82
2022/10/31 01:28:57;;;;;;;16.58;7.50;;;;;;;13.09;100.00;101801.91;4999861;28;20037;-82
2022/10/31 01:31:26;;;;;;;18.85;7.80;;;;;;;13.10;100.00;101793.13;4971732;28;20037;-82
2022/10/31 01:33:51;;;;;;;23.38;8.55;;;;;;;13.10;100.00;101792.31;5004972;28;20029;-83
2022/10/31 01:36:26;;;;;;;17.77;7.85;;;;;;;13.05;100.00;101787.53;4974931;28;20087;-82
2022/10/31 01:38:55;;;;;;;18.35;8.02;;;;;;;13.03;100.00;101789.47;4969595;28;20490;-81
2022/10/31 01:41:24;;;;;;;19.33;8.38;;;;;;;13.01;100.00;101780.97;4983769;28;20041;-82
2022/10/31 01:44:00;;;;;;;20.50;8.43;;;;;;;13.00;100.00;101780.16;5000751;28;20026;-81
2022/10/31 01:46:50;;;;;;;19.60;8.70;;;;;;;12.99;100.00;101782.91;4970329;28;20042;-82
2022/10/31 01:49:24;;;;;;;20.23;9.15;;;;;;;12.97;100.00;101780.44;4978815;28;20089;-82
2022/10/31 01:52:01;;;;;;;18.55;9.18;;;;;;;12.93;100.00;101796.53;4971497;28;20027;-81
2022/10/31 01:54:33;;;;;;;28.25;10.10;;;;;;;12.92;100.00;101794.88;4994319;28;20151;-82
2022/10/31 01:57:01;;;;;;;15.48;8.57;;;;;;;12.88;100.00;101799.56;5001944;28;20487;-81
2022/10/31 01:59:31;;;;;;;17.98;9.00;;;;;;;12.88;100.00;101789.16;4989452;28;20116;-82
2022/10/31 02:01:57;;;;;;;17.55;7.40;;;;;;;12.85;100.00;101789.47;4985190;28;20045;-82
2022/10/31 02:04:25;;;;;;;14.73;8.15;;;;;;;12.85;100.00;101789.47;4989304;28;20029;-81
2022/10/31 02:07:02;;;;;;;12.52;7.55;;;;;;;12.84;100.00;101783.41;4972075;28;20041;-82
2022/10/31 02:09:30;;;;;;;16.38;8.25;;;;;;;12.84;100.00;101788.63;4983850;28;20031;-82
2022/10/31 02:11:58;;;;;;;17.70;8.30;;;;;;;12.84;100.00;101787.81;4984492;28;21073;-83
2022/10/31 02:14:26;;;;;;;13.10;7.95;;;;;;;12.83;100.00;101786.19;4983086;28;20026;-82
2022/10/31 02:16:53;;;;;;;21.67;9.10;;;;;;;12.78;100.00;101786.59;4970825;28;20035;-82
2022/10/31 02:20:04;;;;;;;19.67;9.02;;;;;;;12.73;100.00;101780.19;4965466;28;20084;-82
2022/10/31 02:22:54;;;;;;;20.15;8.85;;;;;;;12.71;100.00;101788.16;4987088;28;20092;-81
2022/10/31 02:25:28;;;;;;;20.85;9.25;;;;;;;12.71;100.00;101779.53;4969234;28;20026;-82
2022/10/31 02:28:06;;;;;;;22.90;10.10;;;;;;;12.68;100.00;101778.06;4985216;28;20141;-82
2022/10/31 02:30:45;;;;;;;20.98;9.40;;;;;;;12.65;100.00;101768.75;4986547;28;20102;-81
2022/10/31 02:33:20;;;;;;;16.65;9.05;;;;;;;12.60;100.00;101776.19;4989532;28;20126;-82
2022/10/31 02:36:03;;;;;;;20.05;9.93;;;;;;;12.57;100.00;101783.47;4988964;28;20050;-81
2022/10/31 02:38:39;;;;;;;20.60;9.63;;;;;;;12.55;100.00;101791.41;4979523;28;20068;-81
2022/10/31 02:41:19;;;;;;;20.25;9.32;;;;;;;12.54;100.00;101788.94;4979847;28;20121;-81
2022/10/31 02:44:20;;;;;;;19.30;9.27;;;;;;;12.53;100.00;101787.31;4995645;28;20025;-82
2022/10/31 02:46:59;;;;;;;15.15;7.65;;;;;;;12.52;100.00;101789.06;4992481;28;20127;-82
2022/10/31 02:49:33;;;;;;;15.02;8.18;;;;;;;12.52;100.00;101783.06;4991506;28;20065;-82
2022/10/31 02:51:59;;;;;;;20.08;8.63;;;;;;;12.53;100.00;101780.31;5001182;28;20035;-81
2022/10/31 02:54:26;;;;;;;25.10;9.77;;;;;;;12.47;100.00;101778.31;5005164;28;20045;-83
2022/10/31 02:57:07;;;;;;;20.23;8.43;;;;;;;12.36;100.00;101771.50;4977060;28;20038;-82
2022/10/31 02:59:37;;;;;;;18.33;7.90;;;;;;;12.25;100.00;101772.50;5008516;28;20036;-81
2022/10/31 03:02:25;;;;;;;18.55;7.35;;;;;;;12.21;100.00;101778.97;4988566;28;20533;-82
2022/10/31 03:05:19;;;;;;;14.48;7.40;;;;;;;12.16;100.00;101778.56;4963502;28;20057;-81
2022/10/31 03:07:57;;;;;;;23.58;11.73;;;;;;;12.11;100.00;101772.16;4973736;28;20097;-81
2022/10/31 03:10:25;;;;;;;17.85;8.75;;;;;;;12.08;100.00;101776.66;4992786;28;20134;-81
2022/10/31 03:13:01;;;;;;;23.02;14.15;;;;;;;12.11;100.00;101774.75;4995661;28;20042;-81
2022/10/31 03:15:56;;;;;;;25.98;11.35;;;;;;;12.07;100.00;101780.25;4991863;28;20038;-81
2022/10/31 03:18:32;;;;;;;25.75;10.85;;;;;;;12.02;100.00;101777.25;4964202;28;20058;-81
2022/10/31 03:21:04;;;;;;;23.70;10.57;;;;;;;12.01;100.00;101788.59;4994893;28;20050;-81
2022/10/31 03:23:32;;;;;;;18.13;9.85;;;;;;;11.99;100.00;101789.69;4996148;28;20161;-81
2022/10/31 03:26:02;;;;;;;22.27;10.85;;;;;;;11.96;100.00;101784.78;4986399;28;20658;-80
2022/10/31 03:28:33;;;;;;;17.77;9.85;;;;;;;11.91;100.00;101782.59;4992146;28;20035;-81
2022/10/31 03:31:01;;;;;;;20.13;9.25;;;;;;;11.88;100.00;101794.09;4987424;28;20053;-81
2022/10/31 03:33:31;;;;;;;19.92;8.73;;;;;;;11.87;100.00;101779.44;4979297;28;20026;-80
2022/10/31 03:36:03;;;;;;;17.50;9.18;;;;;;;11.84;100.00;101778.91;4964837;28;20046;-80
2022/10/31 03:38:30;;;;;;;14.45;8.20;;;;;;;11.80;100.00;101780.94;4974388;28;20513;-83
2022/10/31 03:41:00;;;;;;;18.73;8.43;;;;;;;11.75;100.00;101782.34;4991705;28;20030;-80
2022/10/31 03:43:32;;;;;;;22.27;8.65;;;;;;;11.73;100.00;101774.66;4990036;28;20073;-81
2022/10/31 03:45:59;;;;;;;18.77;8.82;;;;;;;11.71;100.00;101780.97;4990620;28;20073;-80
2022/10/31 03:48:25;;;;;;;20.55;10.63;;;;;;;11.74;100.00;101776.31;4999017;28;20501;-80
2022/10/31 03:51:00;;;;;;;20.75;10.10;;;;;;;11.77;100.00;101775.22;4987288;28;20125;-80
2022/10/31 03:53:49;;;;;;;23.40;8.95;;;;;;;11.76;100.00;101771.81;4965726;28;20027;-80
2022/10/31 03:56:34;;;;;;;14.48;8.23;;;;;;;11.77;100.00;101764.81;4969905;28;20049;-80
2022/10/31 03:59:02;;;;;;;18.80;8.52;;;;;;;11.78;100.00;101766.47;4991126;28;20038;-80
2022/10/31 04:01:32;;;;;;;19.63;8.80;;;;;;;11.78;100.00;101762.09;4989162;28;20042;-80
2022/10/31 04:03:58;;;;;;;17.13;7.90;;;;;;;11.76;100.00;101751.03;4990857;28;20089;-81
2022/10/31 04:06:25;;;;;;;17.35;8.48;;;;;;;11.75;100.00;101751.97;4990763;28;20529;-80
2022/10/31 04:08:58;;;;;;;16.10;7.95;;;;;;;11.70;100.00;101764.56;4972868;28;20033;-81
2022/10/31 04:11:29;;;;;;;21.63;8.63;;;;;;;11.66;100.00;101771.00;5006573;28;20037;-81
2022/10/31 04:14:15;;;;;;;17.50;7.38;;;;;;;11.57;100.00;101772.66;5008628;28;20117;-80
2022/10/31 04:16:43;;;;;;;14.27;7.70;;;;;;;11.56;100.00;101771.00;5001823;28;20140;-80
2022/10/31 04:19:11;;;;;;;21.02;7.60;;;;;;;11.56;100.00;101775.38;4987251;28;20026;-80
2022/10/31 04:21:37;;;;;;;17.30;8.77;;;;;;;11.55;100.00;101777.19;4999900;28;20523;-80
2022/10/31 04:24:02;;;;;;;17.45;8.20;;;;;;;11.52;100.00;101768.84;4984841;28;20034;-80
2022/10/31 04:26:29;;;;;;;15.98;7.25;;;;;;;11.49;100.00;101786.34;4975025;28;20044;-81
2022/10/31 04:28:55;;;;;;;14.70;8.25;;;;;;;11.49;100.00;101788.13;4969071;28;20033;-80
2022/10/31 04:31:21;;;;;;;16.90;8.35;;;;;;;11.51;100.00;101783.59;4987143;28;20114;-79
2022/10/31 04:33:48;;;;;;;18.25;7.85;;;;;;;11.53;100.00;101783.44;4989351;28;20038;-80
2022/10/31 04:36:14;;;;;;;17.13;8.52;;;;;;;11.55;100.00;101787.56;5003986;28;20042;-79
2022/10/31 04:38:40;;;;;;;14.80;8.32;;;;;;;11.54;100.00;101774.72;4985994;28;20073;-80
2022/10/31 04:41:15;;;;;;;25.52;9.80;;;;;;;11.52;100.00;101777.44;4991163;28;20126;-80
2022/10/31 04:43:51;;;;;;;17.98;9.48;;;;;;;11.50;100.00;101772.38;4976623;28;20073;-79
2022/10/31 04:46:17;;;;;;;24.15;10.43;;;;;;;11.49;100.00;101765.56;4981111;28;20417;-79
2022/10/31 04:48:42;;;;;;;22.33;11.00;;;;;;;11.49;100.00;101759.56;4982657;28;20030;-80
2022/10/31 04:51:08;;;;;;;22.33;12.43;;;;;;;11.48;100.00;101761.31;4983799;28;20045;-81
2022/10/31 04:53:33;;;;;;;25.13;12.57;;;;;;;11.46;100.00;101758.03;5005833;28;20859;-80
2022/10/31 04:56:28;;;;;;;26.52;12.32;;;;;;;11.46;100.00;101768.44;4941992;28;20054;-79
2022/10/31 04:58:57;;;;;;;24.67;12.30;;;;;;;11.50;100.00;101771.56;4997245;28;20026;-79
2022/10/31 05:01:24;;;;;;;19.60;11.40;;;;;;;11.49;100.00;101773.34;5002680;28;20045;-79
2022/10/31 05:03:49;;;;;;;26.15;11.30;;;;;;;11.48;100.00;101765.69;4992350;28;20034;-80
2022/10/31 05:06:16;;;;;;;21.55;10.95;;;;;;;11.45;100.00;101759.00;4992698;28;20407;-80
2022/10/31 05:08:42;;;;;;;17.10;10.13;;;;;;;11.43;100.00;101747.94;5009021;28;20030;-80
2022/10/31 05:11:09;;;;;;;17.90;10.27;;;;;;;11.43;100.00;101752.28;4990251;28;20038;-79
2022/10/31 05:13:35;;;;;;;19.50;9.20;;;;;;;11.38;100.00;101744.94;4989472;28;20553;-79
2022/10/31 05:16:21;;;;;;;17.80;9.55;;;;;;;11.35;100.00;101740.00;4995689;28;20052;-79
2022/10/31 05:19:25;;;;;;;22.10;8.93;;;;;;;11.35;100.00;101745.19;4956312;28;20125;-79
2022/10/31 05:22:09;;;;;;;17.48;8.98;;;;;;;11.35;100.00;101740.00;4956606;28;20058;-79
2022/10/31 05:24:36;;;;;;;16.60;7.95;;;;;;;11.35;100.00;101750.38;4974350;28;20077;-79
2022/10/31 05:27:01;;;;;;;16.90;8.40;;;;;;;11.36;100.00;101746.84;4972197;28;20035;-79
2022/10/31 05:29:27;;;;;;;16.75;8.93;;;;;;;11.36;100.00;101743.41;5002061;28;20042;-79
2022/10/31 05:31:52;;;;;;;18.98;8.70;;;;;;;11.34;100.00;101751.38;4991358;28;20045;-79
2022/10/31 05:34:38;;;;;;;14.82;7.40;;;;;;;11.33;100.00;101749.72;4999418;28;20089;-79
2022/10/31 05:37:23;;;;;;;16.95;9.50;;;;;;;11.29;100.00;101748.34;4974401;28;20054;-79
2022/10/31 05:39:49;;;;;;;15.90;8.23;;;;;;;11.25;100.00;101750.41;4989812;28;20060;-79
2022/10/31 05:42:16;;;;;;;16.40;8.20;;;;;;;11.23;100.00;101747.13;5005396;28;20595;-78
2022/10/31 05:44:41;;;;;;;12.85;7.60;;;;;;;11.21;100.00;101753.41;4973917;28;20022;-79
2022/10/31 05:47:22;;;;;;;17.92;9.00;;;;;;;11.17;100.00;101739.91;4989041;28;20030;-79
2022/10/31 05:50:07;;;;;;;16.83;8.57;;;;;;;11.16;100.00;101735.66;5002364;28;20129;-79
2022/10/31 05:52:46;;;;;;;18.73;8.35;;;;;;;11.16;100.00;101740.03;5004778;28;20041;-78
2022/10/31 05:55:25;;;;;;;17.92;8.68;;;;;;;11.15;100.00;101731.44;4993822;28;20387;-78
2022/10/31 05:58:14;;;;;;;20.30;9.18;;;;;;;11.17;100.00;101731.25;4999810;28;20057;-78
2022/10/31 06:00:47;;;;;;;17.42;10.27;;;;;;;11.16;100.00;101727.03;4972553;28;20042;-78
2022/10/31 06:03:14;;;;;;;19.75;9.57;;;;;;;11.15;100.00;101728.84;4990263;28;20053;-79
2022/10/31 06:05:52;;;;;;;25.38;10.05;;;;;;;11.12;100.00;101731.69;4980061;28;20465;-79
2022/10/31 06:08:18;;;;;;;20.67;10.02;;;;;;;11.10;100.00;101731.81;4994442;28;20113;-79
2022/10/31 06:10:44;;;;;;;16.98;8.02;;;;;;;11.07;100.00;101734.69;4992038;28;20030;-79
2022/10/31 06:13:11;;;;;;;21.27;9.82;;;;;;;11.05;100.00;101733.19;4993882;28;20398;-78
2022/10/31 06:15:43;;;;;;;17.70;9.18;;;;;;;11.04;100.00;101721.19;5000833;28;20037;-78
2022/10/31 06:18:08;;;;;;;19.05;10.50;;;;;;;11.02;100.00;101720.47;4983644;28;20395;-78
2022/10/31 06:20:43;;;;;;;29.13;9.23;;;;;;;11.00;100.00;101728.41;4988060;28;20394;-78
2022/10/31 06:23:09;;;;;;;21.73;8.52;;;;;;;10.96;100.00;101716.66;4985449;28;20034;-78
2022/10/31 06:25:35;;;;;;;18.98;8.57;;;;;;;10.95;100.00;101722.81;4990829;28;20041;-78
2022/10/31 06:28:03;;;;;;;20.92;9.18;;;;;;;10.93;100.00;101724.72;4986421;28;20058;-79
2022/10/31 06:30:39;;;;;;;27.52;10.55;;;;;;;10.99;100.00;101720.75;4990887;28;20034;-79
2022/10/31 06:33:05;;;;;;;33.65;10.57;;;;;;;11.10;100.00;101729.22;4993372;28;20043;-78
2022/10/31 06:35:33;;;;;;;23.40;10.95;;;;;;;11.04;100.00;101734.16;5008163;28;20049;-79
2022/10/31 06:37:59;;;;;;;24.42;11.77;;;;;;;11.02;100.00;101736.03;4996386;28;20034;-79
2022/10/31 06:40:37;;;;;;;24.98;10.73;;;;;;;10.99;100.00;101739.72;4992972;28;20038;-78
2022/10/31 06:43:23;;;;;;;34.35;13.00;;;;;;;11.04;100.00;101734.16;5008367;28;20737;-79
2022/10/31 06:45:55;;;;;;;22.95;11.25;;;;;;;11.02;100.00;101742.06;4980958;28;20050;-79
2022/10/31 06:48:34;;;;;;;25.92;10.18;;;;;;;11.00;100.00;101743.13;4991900;28;20768;-78
2022/10/31 06:51:18;;;;;;;19.33;10.90;;;;;;;10.97;100.00;101744.25;5014800;28;20125;-78
2022/10/31 06:53:43;;;;;;;17.52;9.00;;;;;;;10.98;100.00;101740.72;4995543;28;20030;-78
2022/10/31 06:56:11;;;;;;;22.92;11.45;;;;;;;10.96;100.00;101740.00;4979554;28;20046;-78
2022/10/31 06:58:42;;;;;;;24.00;10.75;;;;;;;10.95;100.00;101740.16;4983808;28;20029;-78
2022/10/31 07:01:08;;;;;;;27.60;10.75;;;;;;;10.94;100.00;101741.91;4985359;28;20096;-78
2022/10/31 07:03:34;;;;;;;21.42;9.73;;;;;;;10.91;100.00;101747.38;4993344;28;20030;-77
2022/10/31 07:06:00;;;;;;;25.20;10.05;;;;;;;10.95;100.00;101747.94;5009043;28;20033;-78
2022/10/31 07:08:26;;;;;;;20.30;9.90;;;;;;;10.94;100.00;101751.47;4991212;28;20026;-78
2022/10/31 07:10:55;;;;;;;21.15;9.82;;;;;;;10.96;100.00;101747.78;4991636;28;20446;-78
2022/10/31 07:13:25;;;;;;;25.67;10.68;;;;;;;11.06;100.00;101751.22;4991292;28;20501;-78
2022/10/31 07:15:58;;;;;;;23.33;9.52;;;;;;;11.08;100.00;101751.09;4994199;28;20037;-78
2022/10/31 07:18:24;;;;;;;24.98;10.77;;;;;;;11.03;100.00;101743.69;4979799;28;20033;-78
2022/10/31 07:20:49;;;;;;;21.05;9.60;;;;;;;10.98;100.00;101747.66;5009950;28;20458;-78
2022/10/31 07:23:16;;;;;;;28.42;9.35;;;;;;;10.96;100.00;101745.19;4991592;28;20030;-78
2022/10/31 07:25:46;;;;;;;17.27;8.77;;;;;;;10.96;100.00;101744.38;4980819;28;20104;-78
2022/10/31 07:28:17;;;;;;;16.83;8.85;;;;;;;10.98;100.00;101758.88;4987703;28;20105;-78
2022/10/31 07:30:50;;;;;;;20.80;8.50;;;;;;;11.00;100.00;101756.97;4971917;28;20786;-77
2022/10/31 07:33:18;;;;;;;19.70;10.52;;;;;;;11.02;100.00;101752.44;4988508;28;20038;-78
2022/10/31 07:36:03;;;;;;;18.63;9.20;;;;;;;11.02;100.00;101755.06;5008936;28;20910;-78
2022/10/31 07:38:30;;;;;;;31.55;10.85;;;;;;;11.06;100.00;101756.41;4985591;28;20407;-77
2022/10/31 07:41:01;;;;;;;20.73;9.25;;;;;;;11.10;100.00;101757.78;4996483;28;20178;-78
2022/10/31 07:43:29;;;;;;;19.60;10.75;;;;;;;11.21;100.00;101758.63;4995157;28;20087;-78
2022/10/31 07:46:13;;;;;;;25.73;12.13;;;;;;;11.28;100.00;101759.69;5004431;28;20506;-78
2022/10/31 07:48:58;;;;;;;42.42;15.55;;;;;;;11.40;100.00;101756.00;5004024;28;20053;-79
2022/10/31 07:51:41;;;;;;;26.25;10.43;;;;;;;11.35;100.00;101754.78;5006668;28;20049;-79
2022/10/31 07:54:13;;;;;;;20.75;11.65;;;;;;;11.42;100.00;101758.47;4987203;28;20034;-79
2022/10/31 07:56:39;;;;;;;33.15;12.13;;;;;;;11.42;100.00;101761.06;5009680;28;20049;-78
2022/10/31 07:59:05;;;;;;;23.33;11.27;;;;;;;11.41;100.00;101760.22;5005308;28;20034;-79
2022/10/31 08:01:31;;;;;;;20.50;9.55;;;;;;;11.50;100.00;101761.19;4991528;28;20466;-79
2022/10/31 08:04:14;;;;;;;24.35;11.98;;;;;;;11.70;100.00;101756.78;5010567;28;20040;-80
2022/10/31 08:06:58;;;;;;;23.15;12.23;;;;;;;11.93;100.00;101748.69;5006882;28;20122;-81
2022/10/31 08:09:33;;;;;;;25.98;10.23;;;;;;;12.14;100.00;101751.06;4993495;28;20026;-83
2022/10/31 08:12:04;;;;;;;28.75;11.75;;;;;;;12.27;100.00;101744.56;5006716;28;20040;-79
2022/10/31 08:14:31;;;;;;;22.88;12.73;;;;;;;12.46;100.00;101737.63;4993915;28;20029;-81
2022/10/31 08:17:02;;;;;;;21.65;10.77;;;;;;;12.47;100.00;101739.28;4990011;28;20053;-82
2022/10/31 08:19:37;;;;;;;16.92;8.90;;;;;;;12.55;100.00;101741.16;4991675;28;20045;-85
2022/10/31 08:22:02;;;;;;;23.90;9.60;;;;;;;12.64;100.00;101735.91;4999859;28;20030;-84
2022/10/31 08:24:28;;;;;;;23.30;9.98;;;;;;;12.73;100.00;101741.97;4991913;28;20026;-82
2022/10/31 08:26:55;;;;;;;19.52;8.88;;;;;;;12.88;100.00;101733.69;4971328;28;20042;-84
2022/10/31 08:29:21;;;;;;;26.20;10.30;;;;;;;12.92;100.00;101730.66;4976367;28;20029;-82
2022/10/31 08:31:46;;;;;;;24.25;9.65;;;;;;;13.00;100.00;101728.09;4995003;28;20388;-85
2022/10/31 08:34:30;;;;;;;21.38;9.52;;;;;;;12.88;100.00;101726.69;4992493;28;20407;-85
2022/10/31 08:37:19;;;;;;;23.40;9.10;;;;;;;12.77;100.00;101727.72;5003948;28;20415;-83
2022/10/31 08:39:46;;;;;;;23.00;9.05;;;;;;;12.73;100.00;101726.38;4988565;28;20491;-83
2022/10/31 08:42:12;;;;;;;17.05;8.80;;;;;;;12.73;100.00;101735.97;4987168;28;20038;-84
2022/10/31 08:44:38;;;;;;;20.67;9.43;;;;;;;12.71;100.00;101725.69;4990362;28;20031;-86
2022/10/31 08:47:03;;;;;;;19.38;9.00;;;;;;;12.73;100.00;101731.56;5005691;28;20030;-83
2022/10/31 08:49:37;;;;;;;19.70;9.35;;;;;;;12.77;100.00;101735.53;5005499;28;20092;-84
2022/10/31 08:52:03;;;;;;;16.83;8.63;;;;;;;12.81;100.00;101716.06;4976106;28;20121;-85
2022/10/31 08:54:33;;;;;;;23.45;9.02;;;;;;;12.81;100.00;101720.44;4989301;28;20065;-86
2022/10/31 08:57:18;;;;;;;16.48;8.63;;;;;;;12.66;100.00;101723.56;4993893;28;20041;-85
2022/10/31 08:59:47;;;;;;;23.48;9.57;;;;;;;12.60;100.00;101725.91;4982681;28;20515;-85
2022/10/31 09:02:18;;;;;;;22.13;9.13;;;;;;;12.54;100.00;101716.91;5004157;28;20045;-85
2022/10/31 09:04:43;;;;;;;20.10;9.55;;;;;;;12.52;100.00;101712.81;4978946;28;20026;-84
2022/10/31 09:07:09;;;;;;;21.15;9.90;;;;;;;12.52;100.00;101705.84;4965244;28;20105;-85
2022/10/31 09:09:36;;;;;;;29.95;10.43;;;;;;;12.61;100.00;101709.34;4985743;28;20034;-84
2022/10/31 09:12:01;;;;;;;33.20;10.32;;;;;;;12.62;100.00;101703.16;5004931;28;20045;-85
2022/10/31 09:14:50;;;;;;;19.08;9.70;;;;;;;12.66;100.00;101691.53;4984847;28;20605;-85
2022/10/31 09:17:36;;;;;;;22.75;9.50;;;;;;;12.69;100.00;101688.59;4990800;28;20052;-85
2022/10/31 09:20:25;;;;;;;27.40;10.07;;;;;;;12.77;100.00;101682.66;4984162;28;20042;-86
2022/10/31 09:23:03;;;;;;;20.50;9.90;;;;;;;12.78;100.00;101679.91;4986833;28;20048;-85
2022/10/31 09:25:30;;;;;;;26.95;9.55;;;;;;;12.89;100.00;101663.25;5007954;28;20038;-85
2022/10/31 09:28:27;;;;;;;28.73;9.43;;;;;;;12.87;100.00;101665.19;4993459;28;20454;-84
2022/10/31 09:30:57;;;;;;;29.17;10.20;;;;;;;13.01;100.00;101659.44;4988409;28;20565;-83
2022/10/31 09:33:43;;;;;;;23.63;9.77;;;;;;;13.16;100.00;101664.91;5007674;28;20033;-82
2022/10/31 09:36:27;;;;;;;23.90;11.02;;;;;;;13.29;100.00;101653.28;4997185;28;20087;-83
2022/10/31 09:38:53;;;;;;;32.70;10.52;;;;;;;13.41;100.00;101652.09;4988268;28;20030;-80
2022/10/31 09:42:00;;;;;;;22.65;10.48;;;;;;;13.56;100.00;101642.75;4993587;28;20162;-81
2022/10/31 09:44:48;;;;;;;26.45;10.68;;;;;;;13.58;100.00;101639.97;4984566;28;20027;-83
2022/10/31 09:47:29;;;;;;;23.73;10.13;;;;;;;13.76;100.00;101639.91;5013384;28;20199;-85
2022/10/31 09:50:22;;;;;;;22.15;10.13;;;;;;;13.77;99.73;101634.53;5013187;28;20110;-85
2022/10/31 09:52:58;;;;;;;26.13;9.98;;;;;;;13.81;99.42;101635.03;4992566;28;20072;-86
2022/10/31 09:55:37;;;;;;;22.90;9.55;;;;;;;13.87;99.54;101641.41;4988018;28;20038;-84
2022/10/31 09:58:04;;;;;;;23.70;9.88;;;;;;;13.91;99.17;101637.50;4992620;28;20451;-86
2022/10/31 10:00:32;;;;;;;25.88;10.45;;;;;;;13.97;98.45;101640.28;4989473;28;20030;-85
2022/10/31 10:03:10;;;;;;;30.10;9.93;;;;;;;13.93;99.17;101643.38;4992442;28;20033;-85
2022/10/31 10:05:59;;;;;;;20.58;9.93;;;;;;;14.03;97.71;101651.88;4976457;28;20041;-85
2022/10/31 10:08:38;;;;;;;27.00;10.63;;;;;;;14.09;98.17;101646.06;4974967;28;20046;-85
2022/10/31 10:12:05;;;;;;;17.20;8.95;;;;;;;14.09;98.59;101632.19;4979904;28;20045;-84
2022/10/31 10:14:49;;;;;;;23.00;8.77;;;;;;;14.21;98.40;101626.50;4965199;28;20088;-87
2022/10/31 10:17:34;;;;;;;27.33;10.60;;;;;;;14.31;97.91;101615.94;4986386;28;20038;-84
2022/10/31 10:20:13;;;;;;;20.70;9.38;;;;;;;14.33;97.22;101610.56;4981600;28;20387;-85
2022/10/31 10:22:56;;;;;;;22.45;9.70;;;;;;;14.37;96.51;101609.25;4997143;28;20034;-84
2022/10/31 10:25:39;;;;;;;22.85;10.07;;;;;;;14.45;95.46;101617.09;4979953;28;20051;-80
2022/10/31 10:28:04;;;;;;;25.15;10.25;;;;;;;14.66;93.95;101615.84;4967987;28;20053;-83
2022/10/31 10:30:54;;;;;;;21.67;9.88;;;;;;;14.68;93.99;101608.66;5000118;28;20124;-81
2022/10/31 10:33:27;;;;;;;29.98;10.02;;;;;;;14.79;93.32;101600.50;4999215;28;20470;-83
2022/10/31 10:35:59;;;;;;;20.92;9.18;;;;;;;14.87;92.37;101599.69;4983930;28;20049;-82
2022/10/31 10:38:37;;;;;;;22.52;9.20;;;;;;;14.94;91.48;101575.34;4987062;28;20423;-83
2022/10/31 10:41:16;;;;;;;23.15;9.18;;;;;;;14.96;91.48;101575.19;4970360;28;20053;-84
2022/10/31 10:43:41;;;;;;;28.25;9.57;;;;;;;15.05;91.12;101555.91;4980876;28;20038;-84
2022/10/31 10:49:17;;;;;;;27.52;10.27;;;;;;;14.94;92.78;101528.34;5016272;28;20446;-84
2022/10/31 10:52:07;;;;;;;29.27;12.10;;;;;;;15.02;92.96;101537.97;4993218;28;20066;-83
2022/10/31 10:54:47;;;;;;;23.95;11.10;;;;;;;15.18;91.52;101550.97;4970914;28;20042;-81
2022/10/31 10:57:28;;;;;;;26.95;10.20;;;;;;;15.30;90.27;101554.03;5004407;28;20052;-82
2022/10/31 10:59:54;;;;;;;29.20;9.75;;;;;;;15.31;89.99;101568.75;4974369;28;20072;-81
2022/10/31 11:02:25;;;;;;;22.63;9.98;;;;;;;15.41;89.57;101565.09;4989628;28;20034;-80
2022/10/31 11:04:54;;;;;;;26.52;10.32;;;;;;;15.41;89.32;101557.25;5006678;28;20499;-83
2022/10/31 11:07:20;;;;;;;21.08;9.50;;;;;;;15.49;88.84;101557.25;4990276;28;20488;-81
2022/10/31 11:09:46;;;;;;;34.67;10.35;;;;;;;15.53;88.20;101561.13;4991719;28;20165;-80
2022/10/31 11:12:33;;;;;;;19.92;9.27;;;;;;;15.62;88.18;101554.91;4980582;28;20103;-82
2022/10/31 11:15:05;;;;;;;31.90;10.52;;;;;;;15.63;87.89;101547.84;5003571;28;20048;-80
2022/10/31 11:17:38;;;;;;;21.40;9.32;;;;;;;15.61;88.81;101534.16;5006732;28;20045;-80
2022/10/31 11:20:25;;;;;;;27.95;10.30;;;;;;;15.74;86.88;101526.59;5003263;28;20102;-86
2022/10/31 11:23:01;;;;;;;24.88;10.27;;;;;;;15.67;86.17;101516.00;4985468;28;20030;-79
2022/10/31 11:25:27;;;;;;;21.00;10.25;;;;;;;15.59;86.36;101518.63;4994634;28;20050;-80
2022/10/31 11:28:05;;;;;;;23.80;8.73;;;;;;;15.62;87.71;101520.09;5004589;28;20130;-81
2022/10/31 11:30:35;;;;;;;29.15;9.95;;;;;;;15.65;87.77;101520.56;4988662;28;20038;-82
2022/10/31 11:33:01;;;;;;;30.48;10.00;;;;;;;15.67;86.99;101526.44;4985610;28;20049;-82
2022/10/31 11:35:28;;;;;;;20.42;9.50;;;;;;;15.72;86.70;101526.72;4981827;28;21802;-83